»·PEaware :: NCR5566 KSAN-KPSP

NCR5566 :: KSAN-KPSP

FLIGHT INFORMATION

Flight Status: Arrived
Operator: Unknown
More flights by this operator :: More flights under this callsign
Pilot: Ruben R. (12247)
Aircraft: BOEING 757-200
(B752)
More flights by this aircraft type
Origin: KSAN San Diego Intl-Lindbergh
United States
Destination: KPSP Palm Springs Intl
United States
More flights between these airports :: More routes between these airports
Route: BRDR7 JLI V208 TRM
File this flight plan on PilotEdge
Remarks: twitch.tv / mach3Legend
Altitude:
(Current/Filed)
13,000ft
Speed:
(Current/Filed)
450kts
Departed: 04-Oct-18 09:31 PM
Arrived: 04-Oct-18 10:00 PM
Distance/Time
Traveled:
74nm/0:29
Distance/Time
To Go:
Arrived

Flight Plot

Page will automatically refresh every two minutes.


Map Options




Map Legend


Flown Route
Filed Route
Departure Airport
Arrival Airport
Navaid (VOR, NDB)
Fix

Horizontal Profiles

Position Reports

Time Latitude Longitude Heading Altitude Ground
Speed
04-Oct-18 21:16 32.732458 -117.205358 175 21ft 0kts
04-Oct-18 21:17 32.732458 -117.205358 175 21ft 0kts
04-Oct-18 21:18 32.732458 -117.205358 175 21ft 0kts
04-Oct-18 21:19 32.732458 -117.205358 175 21ft 0kts
04-Oct-18 21:20 32.732459 -117.205358 175 21ft 0kts
04-Oct-18 21:21 32.732459 -117.205358 175 21ft 0kts
04-Oct-18 21:22 32.732459 -117.205358 175 21ft 0kts
04-Oct-18 21:23 32.732459 -117.205358 175 21ft 0kts
04-Oct-18 21:24 32.732611 -117.205372 175 21ft 0kts
04-Oct-18 21:25 32.733106 -117.205660 130 21ft 2kts
04-Oct-18 21:26 32.733270 -117.206317 82 21ft 1kts
04-Oct-18 21:27 32.733260 -117.206375 78 21ft 0kts
04-Oct-18 21:28 32.733372 -117.205952 55 21ft 4kts
04-Oct-18 21:29 32.735240 -117.204877 48 21ft 10kts
04-Oct-18 21:30 32.735159 -117.200562 105 23ft 20kts
04-Oct-18 21:31 32.733406 -117.193295 105 24ft 34kts
04-Oct-18 21:32 32.731217 -117.184281 106 24ft 27kts
04-Oct-18 21:33 32.732665 -117.186019 285 25ft 86kts
04-Oct-18 21:34 32.743054 -117.229626 289 2265ft 171kts
04-Oct-18 21:35 32.756248 -117.298439 250 5591ft 262kts
04-Oct-18 21:36 32.695082 -117.318228 138 9734ft 277kts
04-Oct-18 21:37 32.661516 -117.228832 87 11589ft 359kts
04-Oct-18 21:38 32.709922 -117.136778 29 13002ft 366kts
04-Oct-18 21:39 32.797928 -117.088549 35 12996ft 361kts
04-Oct-18 21:40 32.867434 -117.003766 48 12992ft 368kts
04-Oct-18 21:41 32.928479 -116.911827 50 12992ft 368kts
04-Oct-18 21:42 32.989160 -116.818787 50 12992ft 369kts
04-Oct-18 21:43 33.050715 -116.724061 50 12989ft 362kts
04-Oct-18 21:44 33.101751 -116.645295 50 12984ft 300kts
04-Oct-18 21:45 33.149394 -116.575409 36 13001ft 315kts
04-Oct-18 21:46 33.226578 -116.507997 34 12899ft 367kts
04-Oct-18 21:47 33.308396 -116.436755 34 12895ft 368kts
04-Oct-18 21:48 33.390622 -116.365038 34 12895ft 368kts
04-Oct-18 21:49 33.465987 -116.299149 34 11659ft 364kts
04-Oct-18 21:50 33.543378 -116.231392 35 10221ft 365kts
04-Oct-18 21:51 33.635374 -116.200150 350 8927ft 358kts
04-Oct-18 21:52 33.715309 -116.171897 31 8317ft 257kts
04-Oct-18 21:53 33.762296 -116.181169 273 7701ft 194kts
04-Oct-18 21:54 33.736958 -116.233072 231 6498ft 164kts
04-Oct-18 21:55 33.712215 -116.271874 243 5349ft 149kts
04-Oct-18 21:56 33.725271 -116.315458 301 4011ft 143kts
04-Oct-18 21:57 33.746169 -116.358400 300 3742ft 151kts
04-Oct-18 21:58 33.763587 -116.401109 297 2887ft 142kts
04-Oct-18 21:59 33.778451 -116.443707 298 2058ft 132kts
04-Oct-18 22:00 33.797485 -116.478441 316 1291ft 126kts
04-Oct-18 22:01 33.824702 -116.503169 320 440ft 122kts
04-Oct-18 22:02 33.831879 -116.511731 148 434ft 17kts
04-Oct-18 22:03 33.828439 -116.508588 140 434ft 14kts
04-Oct-18 22:04 33.825887 -116.506349 151 434ft 6kts
04-Oct-18 22:05 33.824123 -116.505723 147 434ft 6kts
04-Oct-18 22:06 33.823458 -116.505859 253 434ft 0kts
04-Oct-18 22:07 33.823458 -116.505859 253 434ft 0kts
04-Oct-18 22:08 33.823458 -116.505859 253 434ft 0kts
04-Oct-18 22:09 33.823458 -116.505859 253 434ft 0kts
04-Oct-18 22:10 33.823458 -116.505859 253 434ft 0kts
04-Oct-18 22:11 33.823458 -116.505859 253 434ft 0kts
04-Oct-18 22:12 33.823458 -116.505859 253 434ft 0kts
04-Oct-18 22:13 33.823458 -116.505859 253 434ft 0kts
04-Oct-18 22:14 33.823458 -116.505859 253 434ft 0kts

Navigation Log

Ident Type
Flight plan parsing failed, navigation log unavailable